Clover, Minnesota
Current Conditions -  °F | °C
As of 3:55 AM on Monday 22 Dec 2014 (Local Time) from KFSE Reporting Station
Haze Haze  
Wind Chill: 27°   Ceiling: 2700
Heat Index: 34°   Visibility: 5mi
Dew Point: 32°   Wind: 8mph
Humidity: 93%   Direction: 110°ESE
Pressure: 29.55"   Gusts: NA
Location:  47.6306°N, 95.3701°W
Report Text: KFSE 220955Z AUTO 11007KT 5SM BR SCT015 OVC027 01/00 A2955 RMK AO2
Loading
Personal Weather Stations






























Interactive Weather Map New forecast layout! Learn more

10-Day Weather Forecast

Advertisements
Track Severe Weather on mobile